createdAt,value
2018-09-10T00:01:49.060Z,18.80
2018-09-10T00:04:23.592Z,18.70
2018-09-10T00:06:59.335Z,18.70
2018-09-10T00:09:34.994Z,18.70
2018-09-10T00:12:11.098Z,18.70
2018-09-10T00:14:46.731Z,18.70
2018-09-10T00:17:24.934Z,18.70
2018-09-10T00:19:59.338Z,18.80
2018-09-10T00:22:34.079Z,18.70
2018-09-10T00:25:10.172Z,18.70
2018-09-10T00:27:45.763Z,18.60
2018-09-10T00:30:21.432Z,18.50
2018-09-10T00:32:57.123Z,18.40
2018-09-10T00:35:32.751Z,18.20
2018-09-10T00:38:07.378Z,17.90
2018-09-10T00:40:41.744Z,18.20
2018-09-10T00:43:17.083Z,18.20
2018-09-10T00:45:51.828Z,18.10
2018-09-10T00:48:26.363Z,18.20
2018-09-10T00:51:00.655Z,18.20
2018-09-10T00:53:35.203Z,18.20
2018-09-10T00:56:09.670Z,18.20
2018-09-10T00:58:44.251Z,18.20
2018-09-10T01:01:18.602Z,18.20
2018-09-10T01:03:54.149Z,18.10
2018-09-10T01:06:30.084Z,18.20
2018-09-10T01:09:07.496Z,18.20
2018-09-10T01:11:43.111Z,18.10
2018-09-10T01:14:19.408Z,18.10
2018-09-10T01:16:53.808Z,17.90
2018-09-10T01:19:29.535Z,17.90
2018-09-10T01:22:04.175Z,17.80
2018-09-10T01:24:39.926Z,17.80
2018-09-10T01:27:15.535Z,17.80
2018-09-10T01:29:50.048Z,17.70
2018-09-10T01:32:25.665Z,17.70
2018-09-10T01:35:06.319Z,17.70
2018-09-10T01:37:42.272Z,17.70
2018-09-10T01:40:24.559Z,17.60
2018-09-10T01:42:58.928Z,17.70
2018-09-10T01:45:33.588Z,17.60
2018-09-10T01:48:07.972Z,17.60
2018-09-10T01:50:42.843Z,17.50
2018-09-10T01:53:17.156Z,17.40
2018-09-10T01:55:51.644Z,17.40
2018-09-10T01:58:25.899Z,17.40
2018-09-10T02:01:01.895Z,17.30
2018-09-10T02:03:36.323Z,17.20
2018-09-10T02:06:13.686Z,17.20
2018-09-10T02:08:49.357Z,17.20
2018-09-10T02:11:24.766Z,17.30
2018-09-10T02:14:00.496Z,17.30
2018-09-10T02:16:36.451Z,17.20
2018-09-10T02:19:11.956Z,17.30
2018-09-10T02:21:46.609Z,17.30
2018-09-10T02:24:21.105Z,17.20
2018-09-10T02:26:56.863Z,17.10
2018-09-10T02:29:31.190Z,17.10
2018-09-10T02:32:06.727Z,17.10
2018-09-10T02:34:41.172Z,17.10
2018-09-10T02:37:15.663Z,17.00
2018-09-10T02:39:51.259Z,16.90
2018-09-10T02:42:26.731Z,16.90
2018-09-10T02:45:01.195Z,16.80
2018-09-10T02:47:35.699Z,16.90
2018-09-10T02:50:10.431Z,16.80
2018-09-10T02:52:44.684Z,16.90
2018-09-10T02:55:19.716Z,16.70
2018-09-10T02:57:55.379Z,16.60
2018-09-10T03:00:29.881Z,16.50
2018-09-10T03:03:04.329Z,16.50
2018-09-10T03:05:39.328Z,16.50
2018-09-10T03:08:15.591Z,16.60
2018-09-10T03:10:51.769Z,16.60
2018-09-10T03:13:28.320Z,16.60
2018-09-10T03:16:04.587Z,16.60
2018-09-10T03:18:40.978Z,16.60
2018-09-10T03:21:15.442Z,16.60
2018-09-10T03:23:50.013Z,16.60
2018-09-10T03:26:26.180Z,16.50
2018-09-10T03:29:01.037Z,16.40
2018-09-10T03:31:37.290Z,16.40
2018-09-10T03:34:11.952Z,16.20
2018-09-10T03:36:48.151Z,16.20
2018-09-10T03:39:22.858Z,16.30
2018-09-10T03:41:57.155Z,16.30
2018-09-10T03:44:33.435Z,16.30
2018-09-10T03:47:07.756Z,16.20
2018-09-10T03:49:42.218Z,16.10
2018-09-10T03:52:18.784Z,16.10
2018-09-10T03:54:53.599Z,16.10
2018-09-10T03:57:28.003Z,16.00
2018-09-10T04:00:04.186Z,16.00
2018-09-10T04:02:38.583Z,16.00
2018-09-10T04:05:13.220Z,16.00
2018-09-10T04:07:49.359Z,16.00
2018-09-10T04:10:26.059Z,16.10
2018-09-10T04:13:00.412Z,16.00
2018-09-10T04:15:36.147Z,15.90
2018-09-10T04:18:11.703Z,15.80
2018-09-10T04:20:46.160Z,15.90
2018-09-10T04:23:20.569Z,15.90
2018-09-10T04:25:58.844Z,15.90
2018-09-10T04:28:34.343Z,15.90
2018-09-10T04:31:10.040Z,15.80
2018-09-10T04:33:45.379Z,15.80
2018-09-10T04:36:19.812Z,15.90
2018-09-10T04:38:54.218Z,15.90
2018-09-10T04:41:35.843Z,15.80
2018-09-10T04:44:10.268Z,15.80
2018-09-10T04:46:44.739Z,15.80
2018-09-10T04:49:20.665Z,15.80
2018-09-10T04:51:55.291Z,15.90
2018-09-10T04:54:29.696Z,15.90
2018-09-10T04:57:04.492Z,16.00
2018-09-10T04:59:38.807Z,15.90
2018-09-10T05:02:13.252Z,15.90
2018-09-10T05:04:47.965Z,16.00
2018-09-10T05:07:25.454Z,16.00
2018-09-10T05:10:05.497Z,16.00
2018-09-10T05:12:40.128Z,16.00
2018-09-10T05:15:15.624Z,16.00
2018-09-10T05:17:51.980Z,16.10
2018-09-10T05:20:27.475Z,16.10
2018-09-10T05:23:02.003Z,16.00
2018-09-10T05:25:45.044Z,16.10
2018-09-10T05:28:20.824Z,16.20
2018-09-10T05:30:56.424Z,16.20
2018-09-10T05:33:30.757Z,16.30
2018-09-10T05:36:05.101Z,16.50
2018-09-10T05:38:39.503Z,16.60
2018-09-10T05:44:01.090Z,16.60
2018-09-10T05:46:35.786Z,16.90
2018-09-10T05:49:10.113Z,17.00
2018-09-10T05:51:45.423Z,17.20
2018-09-10T05:54:19.774Z,17.30
2018-09-10T05:56:56.050Z,17.50
2018-09-10T05:59:31.672Z,17.70
2018-09-10T06:02:07.325Z,17.90
2018-09-10T06:04:41.739Z,18.00
2018-09-10T06:07:17.251Z,18.10
2018-09-10T06:09:51.691Z,18.30
2018-09-10T06:12:27.170Z,18.40
2018-09-10T06:15:02.804Z,18.50
2018-09-10T06:17:38.439Z,18.70
2018-09-10T06:20:12.759Z,18.90
2018-09-10T06:22:48.207Z,19.10
2018-09-10T06:25:22.473Z,19.30
2018-09-10T06:27:58.204Z,19.50
2018-09-10T06:30:34.261Z,19.70
2018-09-10T06:33:10.116Z,19.80
2018-09-10T06:35:44.640Z,20.00
2018-09-10T06:38:19.101Z,20.30
2018-09-10T06:40:53.443Z,20.40
2018-09-10T06:43:29.240Z,20.50
2018-09-10T06:46:03.658Z,20.70
2018-09-10T06:48:38.087Z,20.90
2018-09-10T06:51:12.572Z,21.00
2018-09-10T06:53:47.799Z,21.30
2018-09-10T06:56:23.602Z,21.40
2018-09-10T06:58:58.096Z,21.60
2018-09-10T07:01:32.384Z,21.60
2018-09-10T07:04:07.290Z,21.90
2018-09-10T07:06:43.243Z,22.10
2018-09-10T07:09:17.799Z,22.40
2018-09-10T07:11:53.608Z,22.60
2018-09-10T07:14:29.464Z,22.90
2018-09-10T07:17:03.917Z,22.90
2018-09-10T07:19:39.329Z,23.00
2018-09-10T07:22:15.323Z,23.00
2018-09-10T07:24:49.907Z,23.20
2018-09-10T07:27:25.448Z,23.50
2018-09-10T07:32:47.840Z,23.50
2018-09-10T07:35:22.276Z,23.80
2018-09-10T07:37:56.672Z,23.60
2018-09-10T07:40:32.307Z,23.70
2018-09-10T07:43:07.692Z,23.60
2018-09-10T07:45:42.071Z,23.90
2018-09-10T07:48:16.520Z,24.20
2018-09-10T07:50:50.857Z,24.60
2018-09-10T07:53:25.295Z,25.00
2018-09-10T07:55:59.779Z,25.40
2018-09-10T07:58:34.486Z,25.70
2018-09-10T08:01:08.906Z,25.90
2018-09-10T08:03:43.231Z,26.20
2018-09-10T08:06:18.659Z,26.40
2018-09-10T08:09:01.609Z,26.70
2018-09-10T08:11:37.284Z,26.70
2018-09-10T08:14:14.738Z,26.70
2018-09-10T08:16:49.087Z,26.60
2018-09-10T08:19:24.603Z,25.70
2018-09-10T08:22:00.660Z,25.30
2018-09-10T08:24:36.174Z,25.60
2018-09-10T08:27:11.769Z,25.90
2018-09-10T08:29:46.378Z,26.40
2018-09-10T08:32:21.837Z,26.80
2018-09-10T08:34:56.297Z,27.10
2018-09-10T08:37:30.617Z,27.30
2018-09-10T08:40:06.326Z,27.20
2018-09-10T08:42:42.397Z,26.90
2018-09-10T08:45:17.411Z,26.30
2018-09-10T08:47:53.499Z,26.10
2018-09-10T08:50:28.043Z,26.30
2018-09-10T08:53:02.399Z,26.20
2018-09-10T08:55:36.974Z,26.40
2018-09-10T08:58:11.309Z,26.10
2018-09-10T09:00:45.807Z,26.00
2018-09-10T09:03:20.213Z,26.40
2018-09-10T09:05:55.978Z,26.90
2018-09-10T09:08:31.716Z,27.20
2018-09-10T09:11:08.271Z,27.70
2018-09-10T09:13:44.239Z,27.90
2018-09-10T09:16:20.303Z,28.10
2018-09-10T09:18:55.746Z,27.30
2018-09-10T09:21:31.413Z,27.10
2018-09-10T09:24:05.821Z,27.30
2018-09-10T09:26:41.466Z,27.60
2018-09-10T09:29:15.906Z,27.80
2018-09-10T09:31:51.551Z,27.90
2018-09-10T09:34:31.283Z,28.10
2018-09-10T09:37:11.213Z,28.00
2018-09-10T09:39:50.960Z,27.80
2018-09-10T09:42:30.855Z,27.90
2018-09-10T09:45:12.783Z,28.30
2018-09-10T09:47:47.068Z,27.90
2018-09-10T09:50:21.434Z,27.50
2018-09-10T09:52:56.075Z,27.80
2018-09-10T09:55:31.895Z,27.90
2018-09-10T09:58:06.263Z,28.00
2018-09-10T10:00:49.950Z,28.00
2018-09-10T10:03:29.747Z,28.10
2018-09-10T10:06:13.503Z,27.40
2018-09-10T10:08:47.760Z,27.20
2018-09-10T10:11:23.358Z,27.50
2018-09-10T10:13:58.857Z,27.70
2018-09-10T10:16:34.327Z,27.90
2018-09-10T10:19:09.695Z,27.30
2018-09-10T10:21:45.750Z,27.00
2018-09-10T10:24:20.020Z,27.10
2018-09-10T10:26:56.799Z,27.40
2018-09-10T10:29:32.387Z,27.60
2018-09-10T10:32:08.043Z,27.80
2018-09-10T10:34:42.402Z,27.90
2018-09-10T10:37:17.001Z,27.80
2018-09-10T10:39:51.319Z,28.00
2018-09-10T10:42:25.746Z,28.20
2018-09-10T10:45:01.434Z,28.20
2018-09-10T10:47:37.080Z,28.20
2018-09-10T10:50:12.911Z,28.30
2018-09-10T10:52:47.343Z,28.20
2018-09-10T10:55:21.811Z,28.40
2018-09-10T10:57:56.262Z,28.40
2018-09-10T11:00:31.916Z,28.50
2018-09-10T11:03:07.967Z,28.00
2018-09-10T11:05:42.272Z,28.10
2018-09-10T11:08:17.704Z,28.20
2018-09-10T11:10:53.290Z,27.90
2018-09-10T11:13:29.195Z,27.80
2018-09-10T11:16:04.778Z,28.10
2018-09-10T11:18:40.435Z,28.20
2018-09-10T11:21:15.581Z,27.90
2018-09-10T11:23:51.191Z,28.10
2018-09-10T11:26:27.036Z,27.90
2018-09-10T11:29:01.402Z,28.00
2018-09-10T11:31:37.043Z,28.20
2018-09-10T11:34:11.384Z,28.40
2018-09-10T11:36:47.125Z,27.50
2018-09-10T11:39:21.585Z,27.50
2018-09-10T11:41:56.156Z,27.90
2018-09-10T11:44:31.919Z,28.40
2018-09-10T11:47:06.394Z,28.40
2018-09-10T11:49:40.883Z,28.50
2018-09-10T11:52:15.406Z,28.80
2018-09-10T11:54:49.671Z,28.50
2018-09-10T11:57:24.088Z,28.20
2018-09-10T11:59:58.371Z,27.70
2018-09-10T12:02:34.284Z,28.30
2018-09-10T12:05:08.671Z,28.60
2018-09-10T12:07:44.058Z,28.10
2018-09-10T12:10:19.599Z,28.60
2018-09-10T12:12:53.999Z,28.30
2018-09-10T12:15:29.891Z,28.70
2018-09-10T13:12:15.558Z,29.20
2018-09-10T13:14:51.420Z,29.50
2018-09-10T13:24:32.893Z,29.80
2018-09-10T13:27:10.400Z,29.80
2018-09-10T13:29:45.365Z,30.10
2018-09-10T13:32:20.993Z,30.00
2018-09-10T13:34:55.559Z,30.20
2018-09-10T16:03:37.711Z,30.10
2018-09-10T16:06:15.864Z,29.60
2018-09-10T16:08:50.386Z,29.70
2018-09-10T16:14:03.833Z,29.40
2018-09-10T16:55:29.287Z,29.10
2018-09-10T17:18:47.348Z,29.30
2018-09-10T17:21:28.408Z,29.40
2018-09-10T17:24:04.383Z,29.30
2018-09-10T17:26:39.969Z,29.10
2018-09-10T17:29:14.426Z,29.10
2018-09-10T17:31:50.307Z,29.20
2018-09-10T17:34:33.940Z,29.20
2018-09-10T17:37:08.816Z,29.20
2018-09-10T17:39:43.347Z,29.10
2018-09-10T17:42:17.719Z,29.00
2018-09-10T17:44:52.053Z,28.90
2018-09-10T17:50:00.570Z,28.90
2018-09-10T17:52:36.292Z,28.90
2018-09-10T17:55:10.893Z,28.90
2018-09-10T17:57:47.063Z,28.80
2018-09-10T18:00:24.656Z,28.80
2018-09-10T18:02:59.052Z,28.70
2018-09-10T18:05:34.275Z,28.70
2018-09-10T18:08:09.792Z,28.60
2018-09-10T18:10:45.611Z,28.50
2018-09-10T18:13:26.423Z,28.50
2018-09-10T18:16:02.403Z,28.40
2018-09-10T18:18:41.349Z,28.30
2018-09-10T18:21:16.058Z,28.20
2018-09-10T18:23:52.016Z,28.20
2018-09-10T18:26:29.100Z,28.10
2018-09-10T18:29:03.373Z,28.00
2018-09-10T18:31:39.129Z,27.90
2018-09-10T18:34:13.605Z,27.80
2018-09-10T18:36:48.278Z,27.80
2018-09-10T18:39:22.771Z,27.70
2018-09-10T18:41:57.312Z,27.70
2018-09-10T18:44:31.656Z,27.50
2018-09-10T18:49:41.458Z,27.40
2018-09-10T18:52:16.579Z,27.30
2018-09-10T18:54:50.880Z,27.30
2018-09-10T18:57:26.862Z,27.20
2018-09-10T19:00:01.185Z,27.20
2018-09-10T19:02:40.386Z,27.10
2018-09-10T19:05:14.758Z,27.00
2018-09-10T19:07:50.509Z,26.90
2018-09-10T19:10:27.695Z,26.80
2018-09-10T19:13:06.827Z,26.80
2018-09-10T19:15:43.386Z,26.70
2018-09-10T19:18:19.481Z,26.50
2018-09-10T19:20:54.057Z,26.50
2018-09-10T19:23:29.946Z,26.40
2018-09-10T19:28:49.971Z,26.30
2018-09-10T19:31:25.673Z,26.20
2018-09-10T19:36:35.310Z,26.10
2018-09-10T19:39:10.611Z,26.00
2018-09-10T19:41:45.146Z,25.90
2018-09-10T19:44:19.591Z,25.90
2018-09-10T19:46:54.628Z,25.80
2018-09-10T19:49:30.471Z,25.70
2018-09-10T19:52:04.851Z,25.60
2018-09-10T19:54:39.314Z,25.60
2018-09-10T19:57:15.007Z,25.50
2018-09-10T19:59:49.516Z,25.50
2018-09-10T20:02:26.107Z,25.40
2018-09-10T20:05:02.363Z,25.40
2018-09-10T20:07:38.037Z,25.30
2018-09-10T20:10:14.592Z,25.30
2018-09-10T20:12:58.851Z,25.20
2018-09-10T20:15:35.128Z,25.10
2018-09-10T20:18:11.373Z,25.00
2018-09-10T20:20:45.827Z,25.00
2018-09-10T20:23:21.590Z,24.90
2018-09-10T20:53:15.078Z,24.90
2018-09-10T20:55:49.584Z,24.20
2018-09-10T20:58:25.326Z,24.10
2018-09-10T21:01:07.347Z,24.00
2018-09-10T21:03:41.840Z,23.90
2018-09-10T21:06:22.884Z,23.90
2018-09-10T21:08:57.579Z,23.80
2018-09-10T21:11:33.568Z,23.70
2018-09-10T21:14:09.263Z,23.70
2018-09-10T21:16:43.670Z,23.70
2018-09-10T21:19:20.107Z,23.70
2018-09-10T21:21:56.585Z,23.60
2018-09-10T21:24:31.158Z,23.50
2018-09-10T21:27:07.055Z,23.50
2018-09-10T21:29:41.544Z,23.40
2018-09-10T21:32:17.420Z,23.40
2018-09-10T21:34:51.929Z,23.40
2018-09-10T21:37:26.283Z,23.40
2018-09-10T21:40:00.823Z,23.30
2018-09-10T21:42:35.245Z,23.30
2018-09-10T21:45:09.983Z,23.20
2018-09-10T21:47:45.922Z,23.20
2018-09-10T21:50:21.771Z,23.20
2018-09-10T21:52:56.268Z,23.20
2018-09-10T21:55:32.263Z,23.10
2018-09-10T21:58:06.762Z,23.10
2018-09-10T22:01:00.156Z,23.10
2018-09-10T22:03:34.640Z,23.00
2018-09-10T22:06:16.432Z,23.00
2018-09-10T22:08:53.242Z,22.90
2018-09-10T22:11:29.024Z,22.90
2018-09-10T22:14:04.563Z,22.90
2018-09-10T22:16:38.890Z,22.80
2018-09-10T22:19:14.437Z,22.80
2018-09-10T22:21:49.970Z,22.80
2018-09-10T22:24:24.373Z,22.70
2018-09-10T22:27:00.481Z,22.70
2018-09-10T22:29:34.876Z,22.60
2018-09-10T22:32:10.819Z,22.60
2018-09-10T22:34:45.370Z,22.60
2018-09-10T22:37:19.839Z,22.60
2018-09-10T22:39:55.307Z,22.50
2018-09-10T22:42:29.776Z,22.50
2018-09-10T22:45:04.816Z,22.50
2018-09-10T22:47:43.107Z,22.40
2018-09-10T22:50:20.982Z,22.40
2018-09-10T22:52:55.482Z,22.40
2018-09-10T22:55:29.915Z,22.30
2018-09-10T22:58:04.591Z,22.20
2018-09-10T23:00:39.260Z,22.20
2018-09-10T23:03:13.567Z,22.20
2018-09-10T23:05:49.207Z,22.10
2018-09-10T23:08:24.943Z,22.20
2018-09-10T23:11:01.162Z,22.20
2018-09-10T23:13:37.364Z,22.20
2018-09-10T23:16:11.911Z,22.10
2018-09-10T23:18:48.731Z,22.10
2018-09-10T23:21:29.147Z,22.10
2018-09-10T23:24:03.572Z,22.00
2018-09-10T23:26:39.866Z,22.00
2018-09-10T23:29:16.550Z,22.00
2018-09-10T23:31:53.912Z,22.00
2018-09-10T23:34:28.308Z,21.90
2018-09-10T23:37:03.234Z,21.90
